createdAt,value
2022-11-20T00:03:53.037Z,3.49
2022-11-20T00:08:52.324Z,3.51
2022-11-20T00:13:52.042Z,3.52
2022-11-20T00:18:50.194Z,3.54
2022-11-20T00:23:49.806Z,3.56
2022-11-20T00:28:50.277Z,3.6
2022-11-20T00:33:49.447Z,3.64
2022-11-20T00:38:48.464Z,3.68
2022-11-20T00:43:47.429Z,3.72
2022-11-20T00:48:46.948Z,3.76
2022-11-20T00:53:46.223Z,3.79
2022-11-20T00:58:44.453Z,3.82
2022-11-20T01:03:43.605Z,3.85
2022-11-20T01:08:44.174Z,3.92
2022-11-20T01:13:42.321Z,3.98
2022-11-20T01:18:42.008Z,4.03
2022-11-20T01:23:41.729Z,4.13
2022-11-20T01:28:41.261Z,4.23
2022-11-20T01:33:40.796Z,4.44
2022-11-20T01:38:40.072Z,4.67
2022-11-20T01:43:39.087Z,4.89
2022-11-20T01:48:38.757Z,5.08
2022-11-20T01:53:37.570Z,5.23
2022-11-20T01:58:36.709Z,5.35
2022-11-20T01:59:57.223Z,5.38
2022-11-20T02:04:56.905Z,5.44
2022-11-20T02:09:58.657Z,5.5
2022-11-20T02:14:56.436Z,5.55
2022-11-20T02:19:55.039Z,5.58
2022-11-20T02:24:54.723Z,5.62
2022-11-20T02:29:53.656Z,5.72
2022-11-20T02:34:52.639Z,5.88
2022-11-20T02:39:52.007Z,6.01
2022-11-20T02:44:51.409Z,6.16
2022-11-20T02:49:50.759Z,6.25
2022-11-20T02:54:50.370Z,6.33
2022-11-20T02:58:53.671Z,6.37
2022-11-20T03:03:52.733Z,6.45
2022-11-20T03:08:51.949Z,6.48
2022-11-20T03:13:51.639Z,6.49
2022-11-20T03:18:50.241Z,6.49
2022-11-20T03:23:49.784Z,6.5
2022-11-20T03:28:48.686Z,6.51
2022-11-20T03:33:48.298Z,6.51
2022-11-20T03:38:48.388Z,6.52
2022-11-20T03:43:46.093Z,6.53
2022-11-20T03:48:50.227Z,6.54
2022-11-20T03:53:44.592Z,6.55
2022-11-20T03:58:44.392Z,6.57
2022-11-20T04:03:42.629Z,6.6
2022-11-20T04:08:41.893Z,6.65
2022-11-20T04:13:41.192Z,6.66
2022-11-20T04:18:40.814Z,6.67
2022-11-20T04:23:39.960Z,6.71
2022-11-20T04:28:39.927Z,6.73
2022-11-20T04:33:38.806Z,6.73
2022-11-20T04:38:38.455Z,6.73
2022-11-20T04:43:37.760Z,6.73
2022-11-20T04:48:36.886Z,6.75
2022-11-20T04:53:35.753Z,6.76
2022-11-20T04:58:35.134Z,6.75
2022-11-20T04:59:55.801Z,6.75
2022-11-20T05:04:56.065Z,6.73
2022-11-20T05:09:53.663Z,6.73
2022-11-20T05:14:52.755Z,6.72
2022-11-20T05:19:53.261Z,6.71
2022-11-20T05:24:52.304Z,6.71
2022-11-20T05:29:52.002Z,6.7
2022-11-20T05:34:49.990Z,6.69
2022-11-20T05:39:50.288Z,6.67
2022-11-20T05:44:49.931Z,6.67
2022-11-20T05:49:48.953Z,6.69
2022-11-20T05:54:49.026Z,6.7
2022-11-20T05:58:50.289Z,6.7
2022-11-20T06:03:49.722Z,6.72
2022-11-20T06:08:48.996Z,6.75
2022-11-20T06:13:48.141Z,6.75
2022-11-20T06:18:46.994Z,6.76
2022-11-20T06:23:46.471Z,6.79
2022-11-20T06:28:45.595Z,6.81
2022-11-20T06:33:46.248Z,6.81
2022-11-20T06:38:43.743Z,6.84
2022-11-20T06:43:43.248Z,6.89
2022-11-20T06:48:42.171Z,6.89
2022-11-20T06:53:41.767Z,6.9
2022-11-20T06:58:41.907Z,6.89
2022-11-20T07:03:39.691Z,6.89
2022-11-20T07:08:38.825Z,6.91
2022-11-20T07:13:37.980Z,6.9
2022-11-20T07:18:37.494Z,6.88
2022-11-20T07:23:37.175Z,6.86
2022-11-20T07:28:36.751Z,6.82
2022-11-20T07:33:36.177Z,6.78
2022-11-20T07:38:35.564Z,6.75
2022-11-20T07:43:38.435Z,6.71
2022-11-20T07:48:33.225Z,6.69
2022-11-20T07:53:32.837Z,6.7
2022-11-20T07:58:31.987Z,6.72
2022-11-20T07:59:53.609Z,6.71
2022-11-20T08:04:51.794Z,6.67
2022-11-20T08:09:50.581Z,6.65
2022-11-20T08:14:49.912Z,6.67
2022-11-20T08:19:49.044Z,6.69
2022-11-20T08:24:49.405Z,6.73
2022-11-20T08:29:47.084Z,6.76
2022-11-20T08:34:46.207Z,6.78
2022-11-20T08:39:45.411Z,6.8
2022-11-20T08:44:44.864Z,6.83
2022-11-20T08:49:45.021Z,6.85
2022-11-20T08:54:42.892Z,6.9
2022-11-20T08:59:16.404Z,6.94
2022-11-20T09:03:47.718Z,7
2022-11-20T09:08:47.165Z,7.01
2022-11-20T09:13:46.908Z,6.99
2022-11-20T09:18:46.196Z,6.99
2022-11-20T09:23:45.343Z,6.99
2022-11-20T09:28:45.377Z,7.02
2022-11-20T09:33:44.404Z,7.08
2022-11-20T09:38:44.476Z,7.15
2022-11-20T09:43:43.645Z,7.18
2022-11-20T09:48:43.084Z,7.13
2022-11-20T09:53:42.442Z,7.07
2022-11-20T09:58:27.840Z,7.06
2022-11-20T10:03:27.019Z,7.05
2022-11-20T10:08:25.877Z,7.06
2022-11-20T10:13:25.761Z,7.06
2022-11-20T10:18:24.962Z,7.04
2022-11-20T10:23:25.911Z,7.02
2022-11-20T10:28:24.320Z,7.14
2022-11-20T10:33:23.793Z,7.25
2022-11-20T10:38:22.920Z,7.44
2022-11-20T10:43:22.914Z,7.81
2022-11-20T10:48:21.649Z,8.31
2022-11-20T10:53:21.153Z,8.37
2022-11-20T10:58:20.266Z,8.2
2022-11-20T10:59:41.473Z,8.18
2022-11-20T11:04:40.701Z,8.07
2022-11-20T11:09:39.130Z,7.98
2022-11-20T11:14:38.166Z,7.99
2022-11-20T11:19:37.534Z,8.25
2022-11-20T11:24:42.500Z,8.6
2022-11-20T11:29:36.792Z,9.13
2022-11-20T11:34:36.591Z,9.54
2022-11-20T11:39:35.841Z,9.56
2022-11-20T11:44:35.552Z,9.67
2022-11-20T11:49:35.102Z,9.63
2022-11-20T11:54:34.352Z,9.3
2022-11-20T11:58:52.214Z,9.12
2022-11-20T12:03:51.411Z,8.91
2022-11-20T12:08:50.470Z,9.32
2022-11-20T12:13:50.523Z,9.85
2022-11-20T12:18:49.495Z,10.41
2022-11-20T12:23:50.386Z,10.79
2022-11-20T12:28:49.899Z,11.16
2022-11-20T12:33:49.774Z,10.72
2022-11-20T12:38:47.645Z,10.21
2022-11-20T12:43:46.586Z,10.02
2022-11-20T12:48:46.569Z,10.14
2022-11-20T12:53:45.000Z,10.44
2022-11-20T12:58:44.769Z,10.76
2022-11-20T13:03:43.440Z,10.93
2022-11-20T13:08:42.685Z,10.74
2022-11-20T13:13:41.848Z,10.48
2022-11-20T13:18:41.624Z,10.65
2022-11-20T13:23:40.807Z,10.52
2022-11-20T13:28:38.906Z,10.18
2022-11-20T13:33:37.470Z,9.97
2022-11-20T13:38:36.368Z,9.83
2022-11-20T13:43:36.164Z,9.7
2022-11-20T13:48:35.329Z,9.89
2022-11-20T13:53:34.064Z,10.08
2022-11-20T13:58:33.265Z,10.14
2022-11-20T14:03:58.780Z,9.67
2022-11-20T14:08:30.962Z,9.55
2022-11-20T14:13:30.331Z,9.63
2022-11-20T14:18:29.090Z,9.39
2022-11-20T14:23:30.146Z,9.16
2022-11-20T14:28:27.836Z,9.05
2022-11-20T14:33:26.070Z,9.05
2022-11-20T14:38:25.009Z,8.97
2022-11-20T14:43:23.986Z,8.88
2022-11-20T14:48:23.307Z,8.77
2022-11-20T14:53:23.170Z,8.71
2022-11-20T14:58:21.356Z,8.64
2022-11-20T14:59:41.583Z,8.63
2022-11-20T15:04:40.786Z,8.58
2022-11-20T15:09:39.730Z,8.54
2022-11-20T15:14:39.386Z,8.45
2022-11-20T15:19:38.095Z,8.33
2022-11-20T15:24:37.508Z,8.24
2022-11-20T15:29:36.376Z,8.17
2022-11-20T15:34:36.004Z,8.1
2022-11-20T15:39:35.171Z,8.08
2022-11-20T15:44:35.719Z,8.07
2022-11-20T15:49:34.676Z,8.07
2022-11-20T15:54:33.771Z,8.07
2022-11-20T15:59:00.822Z,8.03
2022-11-20T16:04:00.332Z,8.03
2022-11-20T16:08:59.280Z,8.09
2022-11-20T16:13:58.912Z,8.17
2022-11-20T16:18:58.100Z,8.21
2022-11-20T16:23:58.084Z,8.21
2022-11-20T16:28:57.257Z,8.21
2022-11-20T16:33:56.992Z,8.25
2022-11-20T16:38:56.211Z,8.27
2022-11-20T16:43:54.902Z,8.22
2022-11-20T16:48:54.110Z,8.16
2022-11-20T16:53:53.634Z,8.1
2022-11-20T16:58:52.778Z,8.06
2022-11-20T17:03:53.473Z,8.03
2022-11-20T17:08:51.146Z,8.02
2022-11-20T17:13:50.063Z,8
2022-11-20T17:18:49.625Z,7.99
2022-11-20T17:23:49.537Z,7.93
2022-11-20T17:28:48.945Z,7.9
2022-11-20T17:33:47.246Z,7.78
2022-11-20T17:38:46.022Z,7.7
2022-11-20T17:43:45.329Z,7.67
2022-11-20T17:48:44.949Z,7.66
2022-11-20T17:53:43.565Z,7.67
2022-11-20T17:58:42.523Z,7.68
2022-11-20T18:03:41.492Z,7.62
2022-11-20T18:08:41.100Z,7.52
2022-11-20T18:13:43.685Z,7.47
2022-11-20T18:18:39.148Z,7.38
2022-11-20T18:23:38.436Z,7.21
2022-11-20T18:28:37.789Z,6.96
2022-11-20T18:33:37.286Z,6.77
2022-11-20T18:38:36.293Z,6.61
2022-11-20T18:43:35.506Z,6.48
2022-11-20T18:48:34.216Z,6.35
2022-11-20T18:53:33.663Z,6.28
2022-11-20T18:58:32.995Z,6.23
2022-11-20T18:59:53.761Z,6.21
2022-11-20T19:04:52.699Z,6.15
2022-11-20T19:09:53.151Z,6.09
2022-11-20T19:14:52.783Z,6.01
2022-11-20T19:19:51.031Z,5.97
2022-11-20T19:24:49.840Z,5.93
2022-11-20T19:29:49.405Z,5.89
2022-11-20T19:34:48.321Z,5.84
2022-11-20T19:39:48.009Z,5.79
2022-11-20T19:44:46.605Z,5.76
2022-11-20T19:49:45.856Z,5.75
2022-11-20T19:54:45.254Z,5.75
2022-11-20T19:59:31.256Z,5.75
2022-11-20T20:04:10.127Z,5.76
2022-11-20T20:09:08.697Z,5.76
2022-11-20T20:14:09.965Z,5.73
2022-11-20T20:19:08.077Z,5.7
2022-11-20T20:24:05.897Z,5.65
2022-11-20T20:29:05.433Z,5.63
2022-11-20T20:34:05.571Z,5.63
2022-11-20T20:39:03.884Z,5.65
2022-11-20T20:44:02.952Z,5.74
2022-11-20T20:49:01.975Z,5.76
2022-11-20T20:54:01.735Z,5.77
2022-11-20T20:58:50.187Z,5.79
2022-11-20T21:03:49.701Z,5.81
2022-11-20T21:08:48.511Z,5.84
2022-11-20T21:13:47.673Z,5.84
2022-11-20T21:18:45.462Z,5.83
2022-11-20T21:23:44.681Z,5.82
2022-11-20T21:28:43.929Z,5.85
2022-11-20T21:33:43.699Z,5.92
2022-11-20T21:38:43.138Z,5.97
2022-11-20T21:43:41.761Z,5.99
2022-11-20T21:48:40.570Z,6
2022-11-20T21:53:39.959Z,6.02
2022-11-20T21:58:39.351Z,6
2022-11-20T22:03:39.067Z,5.95
2022-11-20T22:08:37.556Z,5.94
2022-11-20T22:13:36.605Z,5.98
2022-11-20T22:18:35.545Z,6.04
2022-11-20T22:23:35.051Z,6.08
2022-11-20T22:28:34.664Z,6.13
2022-11-20T22:33:32.944Z,6.19
2022-11-20T22:38:37.929Z,6.18
2022-11-20T22:43:32.834Z,6.11
2022-11-20T22:48:31.277Z,5.98
2022-11-20T22:53:30.474Z,5.92
2022-11-20T22:58:29.501Z,5.9
2022-11-20T23:03:28.958Z,5.91
2022-11-20T23:08:28.842Z,5.96
2022-11-20T23:13:27.491Z,6.02
2022-11-20T23:18:26.303Z,6.09
2022-11-20T23:23:25.818Z,6.22
2022-11-20T23:28:24.983Z,6.31
2022-11-20T23:33:24.822Z,6.34
2022-11-20T23:38:22.919Z,6.3
2022-11-20T23:43:22.108Z,6.24
2022-11-20T23:48:21.064Z,6.15
2022-11-20T23:53:20.598Z,6.02
2022-11-20T23:58:28.129Z,5.89
